Time;durP1;ratioP1;P1;durP2;ratioP2;P2;SDS_P1;SDS_P2;PMS_P1;PMS_P2;Temp;Humidity;BMP_temperature;BMP_pressure;BME280_temperature;BME280_humidity;BME280_pressure;Samples;Min_cycle;Max_cycle;Signal;HPM_P1;HPM_P2
2023/10/01 00:00:20;;;;;;;;;;;;;;;;;;5036036;28;19921;-78
2023/10/01 00:02:48;;;;;;;;;;;;;;;;;;5036319;28;19924;-77
2023/10/01 00:05:14;;;;;;;;;;;;;;;;;;5051822;28;20653;-77
2023/10/01 00:07:41;;;;;;;;;;;;;;;;;;5040387;28;20701;-77
2023/10/01 00:10:11;;;;;;;;;;;;;;;;;;5048081;28;19921;-77
2023/10/01 00:12:37;;;;;;;;;;;;;;;;;;5057477;28;20378;-77
2023/10/01 00:15:03;;;;;;;;;;;;;;;;;;5062953;28;19925;-76
2023/10/01 00:17:31;;;;;;;;;;;;;;;;;;5051977;28;19928;-77
2023/10/01 00:20:00;;;;;;;;;;;;;;;;;;5035252;28;19982;-77
2023/10/01 00:22:26;;;;;;;;;;;;;;;;;;5053423;28;19921;-79
2023/10/01 00:24:52;;;;;;;;;;;;;;;;;;5051117;28;19928;-77
2023/10/01 00:27:18;;;;;;;;;;;;;;;;;;5059560;28;20007;-77
2023/10/01 00:29:44;;;;;;;;;;;;;;;;;;5054769;28;19924;-77
2023/10/01 00:32:10;;;;;;;;;;;;;;;;;;5040003;28;19920;-79
2023/10/01 00:34:36;;;;;;;;;;;;;;;;;;5050053;28;19956;-77
2023/10/01 00:37:02;;;;;;;;;;;;;;;;;;5065983;28;19925;-77
2023/10/01 00:39:28;;;;;;;;;;;;;;;;;;5048646;28;20472;-77
2023/10/01 00:41:54;;;;;;;;;;;;;;;;;;5050196;28;20008;-77
2023/10/01 00:44:20;;;;;;;;;;;;;;;;;;5049711;28;20374;-77
2023/10/01 00:46:46;;;;;;;;;;;;;;;;;;5049946;28;20068;-77
2023/10/01 00:49:12;;;;;;;;;;;;;;;;;;5049548;28;19980;-81
2023/10/01 00:51:38;;;;;;;;;;;;;;;;;;5032799;28;20003;-77
2023/10/01 00:54:05;;;;;;;;;;;;;;;;;;5032353;28;19920;-77
2023/10/01 00:56:31;;;;;;;;;;;;;;;;;;5047434;28;19954;-77
2023/10/01 00:58:57;;;;;;;;;;;;;;;;;;5042863;28;20285;-77
2023/10/01 01:01:23;;;;;;;;;;;;;;;;;;5049938;28;19921;-76
2023/10/01 01:03:54;;;;;;;;;;;;;;;;;;5049978;28;20281;-77
2023/10/01 01:06:23;;;;;;;;;;;;;;;;;;5049795;28;19956;-77
2023/10/01 01:08:52;;;;;;;;;;;;;;;;;;5049073;28;19927;-78
2023/10/01 01:11:19;;;;;;;;;;;;;;;;;;5049173;28;20392;-78
2023/10/01 01:13:45;;;;;;;;;;;;;;;;;;5033251;28;19921;-77
2023/10/01 01:16:10;;;;;;;;;;;;;;;;;;5049268;28;19920;-76
2023/10/01 01:18:36;;;;;;;;;;;;;;;;;;5049538;28;19932;-76
2023/10/01 01:21:09;;;;;;;;;;;;;;;;;;5050076;28;19925;-76
2023/10/01 01:23:35;;;;;;;;;;;;;;;;;;5048786;28;20285;-76
2023/10/01 01:26:01;;;;;;;;;;;;;;;;;;5049750;28;19920;-76
2023/10/01 01:28:30;;;;;;;;;;;;;;;;;;5050658;28;19986;-76
2023/10/01 01:30:58;;;;;;;;;;;;;;;;;;5050065;28;20361;-76
2023/10/01 01:33:31;;;;;;;;;;;;;;;;;;5049329;28;20015;-78
2023/10/01 01:35:57;;;;;;;;;;;;;;;;;;5050041;28;20444;-76
2023/10/01 01:38:24;;;;;;;;;;;;;;;;;;5052033;28;19928;-76
2023/10/01 01:40:51;;;;;;;;;;;;;;;;;;5034699;28;19925;-77
2023/10/01 01:43:21;;;;;;;;;;;;;;;;;;5053609;28;19947;-76
2023/10/01 01:45:47;;;;;;;;;;;;;;;;;;5054638;28;19982;-76
2023/10/01 01:48:30;;;;;;;;;;;;;;;;;;5053450;28;19940;-76
2023/10/01 01:50:58;;;;;;;;;;;;;;;;;;5045059;28;20377;-76
2023/10/01 01:53:26;;;;;;;;;;;;;;;;;;5043897;28;19920;-77
2023/10/01 01:55:52;;;;;;;;;;;;;;;;;;5051846;28;19932;-76
2023/10/01 01:58:24;;;;;;;;;;;;;;;;;;5052973;28;19929;-76
2023/10/01 02:01:08;;;;;;;;;;;;;;;;;;5053564;28;19921;-76
2023/10/01 02:03:34;;;;;;;;;;;;;;;;;;5045590;28;19920;-76
2023/10/01 02:06:00;;;;;;;;;;;;;;;;;;5064687;28;19921;-76
2023/10/01 02:08:44;;;;;;;;;;;;;;;;;;5034883;28;19986;-76
2023/10/01 02:11:10;;;;;;;;;;;;;;;;;;5049585;28;19920;-76
2023/10/01 02:13:40;;;;;;;;;;;;;;;;;;5036328;28;19935;-76
2023/10/01 02:16:18;;;;;;;;;;;;;;;;;;5052636;28;20381;-76
2023/10/01 02:18:56;;;;;;;;;;;;;;;;;;5052206;28;20245;-76
2023/10/01 02:21:42;;;;;;;;;;;;;;;;;;5053009;28;20235;-75
2023/10/01 02:24:11;;;;;;;;;;;;;;;;;;5051536;28;19970;-76
2023/10/01 02:26:37;;;;;;;;;;;;;;;;;;5033053;28;19921;-76
2023/10/01 02:29:03;;;;;;;;;;;;;;;;;;5052797;28;19931;-76
2023/10/01 02:31:34;;;;;;;;;;;;;;;;;;5035559;28;19927;-78
2023/10/01 02:34:00;;;;;;;;;;;;;;;;;;5052332;28;19928;-77
2023/10/01 02:36:26;;;;;;;;;;;;;;;;;;5052477;28;19921;-79
2023/10/01 02:38:55;;;;;;;;;;;;;;;;;;5051384;28;20002;-77
2023/10/01 02:41:25;;;;;;;;;;;;;;;;;;5041855;28;19921;-77
2023/10/01 02:43:51;;;;;;;;;;;;;;;;;;5052301;28;20428;-77
2023/10/01 02:46:26;;;;;;;;;;;;;;;;;;5050648;28;19920;-78
2023/10/01 02:48:52;;;;;;;;;;;;;;;;;;5050649;28;19924;-77
2023/10/01 02:51:32;;;;;;;;;;;;;;;;;;5052258;28;20329;-77
2023/10/01 02:54:05;;;;;;;;;;;;;;;;;;5051771;28;19920;-78
2023/10/01 02:56:32;;;;;;;;;;;;;;;;;;5051078;28;19972;-77
2023/10/01 02:59:07;;;;;;;;;;;;;;;;;;5051984;28;19920;-77
2023/10/01 03:01:34;;;;;;;;;;;;;;;;;;5051730;28;19943;-78
2023/10/01 03:04:05;;;;;;;;;;;;;;;;;;5052262;28;19944;-77
2023/10/01 03:06:33;;;;;;;;;;;;;;;;;;5055209;28;19920;-79
2023/10/01 03:11:25;;;;;;;;;;;;;;;;;;5051354;28;19932;-77
2023/10/01 03:13:54;;;;;;;;;;;;;;;;;;5051657;28;19942;-77
2023/10/01 03:19:17;;;;;;;;;;;;;;;;;;5051694;28;19971;-78
2023/10/01 03:24:29;;;;;;;;;;;;;;;;;;5051074;28;20362;-77
2023/10/01 03:26:58;;;;;;;;;;;;;;;;;;5051698;28;19932;-77
2023/10/01 03:29:34;;;;;;;;;;;;;;;;;;5045523;28;19920;-77
2023/10/01 03:32:26;;;;;;;;;;;;;;;;;;5051974;28;19920;-77
2023/10/01 03:34:46;;;;;;;;;;;;;;;;;;5050502;28;19928;-77
2023/10/01 03:37:19;;;;;;;;;;;;;;;;;;5051943;28;19924;-78
2023/10/01 03:39:46;;;;;;;;;;;;;;;;;;5049134;28;20007;-77
2023/10/01 03:42:17;;;;;;;;;;;;;;;;;;5051446;28;19964;-77
2023/10/01 03:45:00;;;;;;;;;;;;;;;;;;5050147;28;20390;-77
2023/10/01 03:47:27;;;;;;;;;;;;;;;;;;5051615;28;19920;-79
2023/10/01 03:49:57;;;;;;;;;;;;;;;;;;5050260;28;19924;-77
2023/10/01 03:52:29;;;;;;;;;;;;;;;;;;5051176;28;20393;-77
2023/10/01 03:57:23;;;;;;;;;;;;;;;;;;5051772;28;19977;-78
2023/10/01 03:59:52;;;;;;;;;;;;;;;;;;5050367;28;20316;-78
2023/10/01 04:02:28;;;;;;;;;;;;;;;;;;5051310;28;19920;-78
2023/10/01 04:04:57;;;;;;;;;;;;;;;;;;5046755;28;20011;-77
2023/10/01 04:07:26;;;;;;;;;;;;;;;;;;5051191;28;19920;-78
2023/10/01 04:09:52;;;;;;;;;;;;;;;;;;5048562;28;19928;-77
2023/10/01 04:12:33;;;;;;;;;;;;;;;;;;5050863;28;20274;-77
2023/10/01 04:15:03;;;;;;;;;;;;;;;;;;5048135;28;19956;-78
2023/10/01 04:17:29;;;;;;;;;;;;;;;;;;5050667;28;19975;-78
2023/10/01 04:20:00;;;;;;;;;;;;;;;;;;5033399;28;19921;-77
2023/10/01 04:22:27;;;;;;;;;;;;;;;;;;5051173;28;19933;-79
2023/10/01 04:25:10;;;;;;;;;;;;;;;;;;5032441;28;20016;-77
2023/10/01 04:27:36;;;;;;;;;;;;;;;;;;5050451;28;20007;-77
2023/10/01 04:30:07;;;;;;;;;;;;;;;;;;5049864;28;20045;-77
2023/10/01 04:32:33;;;;;;;;;;;;;;;;;;5051000;28;20290;-77
2023/10/01 04:34:59;;;;;;;;;;;;;;;;;;5049866;28;19920;-77
2023/10/01 04:37:37;;;;;;;;;;;;;;;;;;5050682;28;19988;-77
2023/10/01 04:40:04;;;;;;;;;;;;;;;;;;5031718;28;19921;-78
2023/10/01 04:42:31;;;;;;;;;;;;;;;;;;5050559;28;20396;-77
2023/10/01 04:44:57;;;;;;;;;;;;;;;;;;5050798;28;19921;-77
2023/10/01 04:47:40;;;;;;;;;;;;;;;;;;5050434;28;20378;-77
2023/10/01 04:50:06;;;;;;;;;;;;;;;;;;5050405;28;19920;-78
2023/10/01 04:52:32;;;;;;;;;;;;;;;;;;5033343;28;19929;-77
2023/10/01 04:54:58;;;;;;;;;;;;;;;;;;5032245;28;19928;-77
2023/10/01 04:57:25;;;;;;;;;;;;;;;;;;5050658;28;19928;-77
2023/10/01 04:59:57;;;;;;;;;;;;;;;;;;5050340;28;19943;-78
2023/10/01 05:02:23;;;;;;;;;;;;;;;;;;5042222;28;19931;-77
2023/10/01 05:04:49;;;;;;;;;;;;;;;;;;5049809;28;19928;-78
2023/10/01 05:07:15;;;;;;;;;;;;;;;;;;5050109;28;19921;-77
2023/10/01 05:09:42;;;;;;;;;;;;;;;;;;5048849;28;19924;-78
2023/10/01 05:12:09;;;;;;;;;;;;;;;;;;5051878;28;19928;-77
2023/10/01 05:14:56;;;;;;;;;;;;;;;;;;5054507;28;19921;-77
2023/10/01 05:17:21;;;;;;;;;;;;;;;;;;5053500;28;19920;-79
2023/10/01 05:19:47;;;;;;;;;;;;;;;;;;5036928;28;19986;-79
2023/10/01 05:22:13;;;;;;;;;;;;;;;;;;5053911;28;19924;-77
2023/10/01 05:24:41;;;;;;;;;;;;;;;;;;5051110;28;19927;-78
2023/10/01 05:27:18;;;;;;;;;;;;;;;;;;5042778;28;19917;-78
2023/10/01 05:29:45;;;;;;;;;;;;;;;;;;5053909;28;20354;-78
2023/10/01 05:32:11;;;;;;;;;;;;;;;;;;5053599;28;20431;-78
2023/10/01 05:34:46;;;;;;;;;;;;;;;;;;5053499;28;19925;-77
2023/10/01 05:37:20;;;;;;;;;;;;;;;;;;5052596;28;19955;-77
2023/10/01 05:39:55;;;;;;;;;;;;;;;;;;5051065;28;19920;-77
2023/10/01 05:42:22;;;;;;;;;;;;;;;;;;5053672;28;20393;-77
2023/10/01 05:44:50;;;;;;;;;;;;;;;;;;5037339;28;19920;-82
2023/10/01 05:47:17;;;;;;;;;;;;;;;;;;5035796;28;19971;-77
2023/10/01 05:49:49;;;;;;;;;;;;;;;;;;5035651;28;19935;-77
2023/10/01 05:52:17;;;;;;;;;;;;;;;;;;5036598;28;20019;-81
2023/10/01 05:54:50;;;;;;;;;;;;;;;;;;5051277;28;21582;-77
2023/10/01 05:57:16;;;;;;;;;;;;;;;;;;5052816;28;20017;-77
2023/10/01 05:59:42;;;;;;;;;;;;;;;;;;5052649;28;19968;-75
2023/10/01 06:02:24;;;;;;;;;;;;;;;;;;5051926;28;19928;-74
2023/10/01 06:04:54;;;;;;;;;;;;;;;;;;5051903;28;19976;-75
2023/10/01 06:07:24;;;;;;;;;;;;;;;;;;5053197;28;20568;-74
2023/10/01 06:09:51;;;;;;;;;;;;;;;;;;5049829;28;20355;-76
2023/10/01 06:12:18;;;;;;;;;;;;;;;;;;5051990;28;19921;-75
2023/10/01 06:14:45;;;;;;;;;;;;;;;;;;5053402;28;19963;-74
2023/10/01 06:17:11;;;;;;;;;;;;;;;;;;5052428;28;19920;-74
2023/10/01 06:19:40;;;;;;;;;;;;;;;;;;5053144;28;19947;-76
2023/10/01 06:22:12;;;;;;;;;;;;;;;;;;5052324;28;19921;-74
2023/10/01 06:24:39;;;;;;;;;;;;;;;;;;5052435;28;19921;-75
2023/10/01 06:27:06;;;;;;;;;;;;;;;;;;5052544;28;19920;-74
2023/10/01 06:29:33;;;;;;;;;;;;;;;;;;5052935;28;19928;-75
2023/10/01 06:32:02;;;;;;;;;;;;;;;;;;5034319;28;19920;-75
2023/10/01 06:34:32;;;;;;;;;;;;;;;;;;5035687;28;19967;-74
2023/10/01 06:36:58;;;;;;;;;;;;;;;;;;5052046;28;19924;-78
2023/10/01 06:39:24;;;;;;;;;;;;;;;;;;5051777;28;19921;-76
2023/10/01 06:41:52;;;;;;;;;;;;;;;;;;5052262;28;19928;-74
2023/10/01 06:44:19;;;;;;;;;;;;;;;;;;5052075;28;20377;-74
2023/10/01 06:46:47;;;;;;;;;;;;;;;;;;5051683;28;19920;-75
2023/10/01 06:49:13;;;;;;;;;;;;;;;;;;5051482;28;19925;-74
2023/10/01 06:51:45;;;;;;;;;;;;;;;;;;5050698;28;19920;-74
2023/10/01 06:54:11;;;;;;;;;;;;;;;;;;5050204;28;20019;-76
2023/10/01 06:56:38;;;;;;;;;;;;;;;;;;5051802;28;20067;-74
2023/10/01 07:01:42;;;;;;;;;;;;;;;;;;5052828;28;20266;-75
2023/10/01 07:04:08;;;;;;;;;;;;;;;;;;5051886;28;20270;-74
2023/10/01 07:06:36;;;;;;;;;;;;;;;;;;5051947;28;20370;-74
2023/10/01 07:09:02;;;;;;;;;;;;;;;;;;5050605;28;20054;-78
2023/10/01 07:11:28;;;;;;;;;;;;;;;;;;5051253;28;19921;-74
2023/10/01 07:13:55;;;;;;;;;;;;;;;;;;5051316;28;19943;-74
2023/10/01 07:16:39;;;;;;;;;;;;;;;;;;5051236;28;20417;-74
2023/10/01 07:19:05;;;;;;;;;;;;;;;;;;5051585;28;19921;-75
2023/10/01 07:21:33;;;;;;;;;;;;;;;;;;5034818;28;20350;-75
2023/10/01 07:24:00;;;;;;;;;;;;;;;;;;5033012;28;19928;-75
2023/10/01 07:26:26;;;;;;;;;;;;;;;;;;5052218;28;20015;-75
2023/10/01 07:28:56;;;;;;;;;;;;;;;;;;5036052;28;20357;-73
2023/10/01 07:31:24;;;;;;;;;;;;;;;;;;5048657;28;20421;-74
2023/10/01 07:33:50;;;;;;;;;;;;;;;;;;5032738;28;19921;-75
2023/10/01 07:36:17;;;;;;;;;;;;;;;;;;5053966;28;20352;-74
2023/10/01 07:38:49;;;;;;;;;;;;;;;;;;5050660;28;19925;-73
2023/10/01 07:41:16;;;;;;;;;;;;;;;;;;5034073;28;19924;-76
2023/10/01 07:43:42;;;;;;;;;;;;;;;;;;5050177;28;19947;-75
2023/10/01 07:46:08;;;;;;;;;;;;;;;;;;5048893;28;19920;-78
2023/10/01 07:48:47;;;;;;;;;;;;;;;;;;5051599;28;20011;-74
2023/10/01 07:51:22;;;;;;;;;;;;;;;;;;5050666;28;19925;-78
2023/10/01 07:53:48;;;;;;;;;;;;;;;;;;5050044;28;20442;-75
2023/10/01 07:56:15;;;;;;;;;;;;;;;;;;5047971;28;20003;-75
2023/10/01 07:58:48;;;;;;;;;;;;;;;;;;5051134;28;19921;-74
2023/10/01 08:01:36;;;;;;;;;;;;;;;;;;5051766;28;19960;-74
2023/10/01 08:04:06;;;;;;;;;;;;;;;;;;5050673;28;19925;-75
2023/10/01 08:06:32;;;;;;;;;;;;;;;;;;5050447;28;19924;-75
2023/10/01 08:08:58;;;;;;;;;;;;;;;;;;5050017;28;19921;-76
2023/10/01 08:14:08;;;;;;;;;;;;;;;;;;5051263;28;19975;-74
2023/10/01 08:16:47;;;;;;;;;;;;;;;;;;5050265;28;19920;-75
2023/10/01 08:19:13;;;;;;;;;;;;;;;;;;5047463;28;19921;-74
2023/10/01 08:21:48;;;;;;;;;;;;;;;;;;5052134;28;20420;-74
2023/10/01 08:24:18;;;;;;;;;;;;;;;;;;5034541;28;19925;-74
2023/10/01 08:26:44;;;;;;;;;;;;;;;;;;5047457;28;20255;-74
2023/10/01 08:29:14;;;;;;;;;;;;;;;;;;5048226;28;20008;-74
2023/10/01 08:34:28;;;;;;;;;;;;;;;;;;5041283;28;20012;-81
2023/10/01 08:36:57;;;;;;;;;;;;;;;;;;5031502;28;19944;-74
2023/10/01 08:42:08;;;;;;;;;;;;;;;;;;5048072;28;19921;-74
2023/10/01 08:44:44;;;;;;;;;;;;;;;;;;5030966;28;19923;-74
2023/10/01 08:47:21;;;;;;;;;;;;;;;;;;5036078;28;19921;-74
2023/10/01 08:49:47;;;;;;;;;;;;;;;;;;5051999;28;19928;-74
2023/10/01 08:52:19;;;;;;;;;;;;;;;;;;5036430;28;19921;-75
2023/10/01 08:54:45;;;;;;;;;;;;;;;;;;5050497;28;19975;-74
2023/10/01 08:57:36;;;;;;;;;;;;;;;;;;5051714;28;19925;-74
2023/10/01 08:59:59;;;;;;;;;;;;;;;;;;5040373;28;20374;-74
2023/10/01 09:02:26;;;;;;;;;;;;;;;;;;5054118;28;19921;-74
2023/10/01 09:04:53;;;;;;;;;;;;;;;;;;5063568;28;19928;-74
2023/10/01 09:07:19;;;;;;;;;;;;;;;;;;5042878;28;19921;-75
2023/10/01 09:09:54;;;;;;;;;;;;;;;;;;5048413;28;19921;-73
2023/10/01 09:12:20;;;;;;;;;;;;;;;;;;5050234;28;19925;-74
2023/10/01 09:14:46;;;;;;;;;;;;;;;;;;5050373;28;19921;-77
2023/10/01 09:17:12;;;;;;;;;;;;;;;;;;5050960;28;20359;-78
2023/10/01 09:19:42;;;;;;;;;;;;;;;;;;5062432;28;19931;-77
2023/10/01 09:22:08;;;;;;;;;;;;;;;;;;5043905;28;19963;-74
2023/10/01 09:24:55;;;;;;;;;;;;;;;;;;5060556;28;20016;-74
2023/10/01 09:27:24;;;;;;;;;;;;;;;;;;5052625;28;20014;-74
2023/10/01 09:29:57;;;;;;;;;;;;;;;;;;5054578;28;19943;-73
2023/10/01 09:32:23;;;;;;;;;;;;;;;;;;5053887;28;20031;-74
2023/10/01 09:34:58;;;;;;;;;;;;;;;;;;5053580;28;20011;-73
2023/10/01 09:37:33;;;;;;;;;;;;;;;;;;5052885;28;19925;-74
2023/10/01 09:40:04;;;;;;;;;;;;;;;;;;5050367;28;19931;-72
2023/10/01 09:42:31;;;;;;;;;;;;;;;;;;5050665;28;20407;-71
2023/10/01 09:45:09;;;;;;;;;;;;;;;;;;5055958;28;19928;-72
2023/10/01 09:47:35;;;;;;;;;;;;;;;;;;5053773;28;19990;-71
2023/10/01 09:50:03;;;;;;;;;;;;;;;;;;5055138;28;20370;-71
2023/10/01 09:52:30;;;;;;;;;;;;;;;;;;5053187;28;19920;-72
2023/10/01 09:54:56;;;;;;;;;;;;;;;;;;5052505;28;19931;-71
2023/10/01 09:57:24;;;;;;;;;;;;;;;;;;5053936;28;19924;-75
2023/10/01 09:59:50;;;;;;;;;;;;;;;;;;5053871;28;20281;-71
2023/10/01 10:02:27;;;;;;;;;;;;;;;;;;5054032;28;20004;-72
2023/10/01 10:04:53;;;;;;;;;;;;;;;;;;5050713;28;20294;-71
2023/10/01 10:07:24;;;;;;;;;;;;;;;;;;5050361;28;20374;-72
2023/10/01 10:09:54;;;;;;;;;;;;;;;;;;5045655;28;19943;-71
2023/10/01 10:12:21;;;;;;;;;;;;;;;;;;5050482;28;20358;-71
2023/10/01 10:14:56;;;;;;;;;;;;;;;;;;5056543;28;19921;-72
2023/10/01 10:17:25;;;;;;;;;;;;;;;;;;5053436;28;20327;-72
2023/10/01 10:19:51;;;;;;;;;;;;;;;;;;5053411;28;20070;-72
2023/10/01 10:22:17;;;;;;;;;;;;;;;;;;5053830;28;20430;-71
2023/10/01 10:24:46;;;;;;;;;;;;;;;;;;5051449;28;19920;-72
2023/10/01 10:27:16;;;;;;;;;;;;;;;;;;5053716;28;19925;-73
2023/10/01 10:29:43;;;;;;;;;;;;;;;;;;5051796;28;20294;-72
2023/10/01 10:32:13;;;;;;;;;;;;;;;;;;5052673;28;19929;-72
2023/10/01 10:34:47;;;;;;;;;;;;;;;;;;5048787;28;19928;-72
2023/10/01 10:37:15;;;;;;;;;;;;;;;;;;5033555;28;19928;-72
2023/10/01 10:39:41;;;;;;;;;;;;;;;;;;5015235;28;19921;-73
2023/10/01 10:42:07;;;;;;;;;;;;;;;;;;5033497;28;20009;-72
2023/10/01 10:44:34;;;;;;;;;;;;;;;;;;5032989;28;19972;-72
2023/10/01 10:47:00;;;;;;;;;;;;;;;;;;5033500;28;19921;-72
2023/10/01 10:49:26;;;;;;;;;;;;;;;;;;5049230;28;19928;-72
2023/10/01 10:51:55;;;;;;;;;;;;;;;;;;5016131;28;19960;-72
2023/10/01 10:54:23;;;;;;;;;;;;;;;;;;5032274;28;19921;-72
2023/10/01 10:56:52;;;;;;;;;;;;;;;;;;5046165;28;19920;-72
2023/10/01 10:59:19;;;;;;;;;;;;;;;;;;5053205;28;20019;-72
2023/10/01 11:01:47;;;;;;;;;;;;;;;;;;5069293;28;19947;-72
2023/10/01 11:04:14;;;;;;;;;;;;;;;;;;5052810;28;19924;-72
2023/10/01 11:06:42;;;;;;;;;;;;;;;;;;5052107;28;19924;-72
2023/10/01 11:09:16;;;;;;;;;;;;;;;;;;5040641;28;19921;-73
2023/10/01 11:11:43;;;;;;;;;;;;;;;;;;5051847;28;19920;-73
2023/10/01 11:14:15;;;;;;;;;;;;;;;;;;5052873;28;19928;-72
2023/10/01 11:16:44;;;;;;;;;;;;;;;;;;5051925;28;20381;-73
2023/10/01 11:19:13;;;;;;;;;;;;;;;;;;5051903;28;19927;-72
2023/10/01 11:21:39;;;;;;;;;;;;;;;;;;5051400;28;19920;-72
2023/10/01 11:24:05;;;;;;;;;;;;;;;;;;5052425;28;19921;-74
2023/10/01 11:26:31;;;;;;;;;;;;;;;;;;5052155;28;19924;-72
2023/10/01 11:29:11;;;;;;;;;;;;;;;;;;5051952;28;19920;-73
2023/10/01 11:31:38;;;;;;;;;;;;;;;;;;5050931;28;19927;-72
2023/10/01 11:34:06;;;;;;;;;;;;;;;;;;5044216;28;20392;-72
2023/10/01 11:36:35;;;;;;;;;;;;;;;;;;5051225;28;19925;-73
2023/10/01 11:39:03;;;;;;;;;;;;;;;;;;5033871;28;19963;-76
2023/10/01 11:41:38;;;;;;;;;;;;;;;;;;5047723;28;19971;-75
2023/10/01 11:44:05;;;;;;;;;;;;;;;;;;5048279;28;20366;-75
2023/10/01 11:49:16;;;;;;;;;;;;;;;;;;5047629;28;19975;-71
2023/10/01 11:51:45;;;;;;;;;;;;;;;;;;5030612;28;19921;-73
2023/10/01 11:54:14;;;;;;;;;;;;;;;;;;5041176;28;19927;-75
2023/10/01 11:56:40;;;;;;;;;;;;;;;;;;5048702;28;19920;-72
2023/10/01 11:59:08;;;;;;;;;;;;;;;;;;5052765;28;19928;-72
2023/10/01 12:01:47;;;;;;;;;;;;;;;;;;5051923;28;19920;-71
2023/10/01 12:04:16;;;;;;;;;;;;;;;;;;5034264;28;19925;-72
2023/10/01 12:06:43;;;;;;;;;;;;;;;;;;5050291;28;19925;-72
2023/10/01 12:09:09;;;;;;;;;;;;;;;;;;5050534;28;19964;-71
2023/10/01 12:11:38;;;;;;;;;;;;;;;;;;5051839;28;19975;-71
2023/10/01 12:14:08;;;;;;;;;;;;;;;;;;5050962;28;19960;-72
2023/10/01 12:16:35;;;;;;;;;;;;;;;;;;5051346;28;19921;-71
2023/10/01 12:21:48;;;;;;;;;;;;;;;;;;5066324;28;19921;-71
2023/10/01 12:24:15;;;;;;;;;;;;;;;;;;5049793;28;19927;-72
2023/10/01 12:26:43;;;;;;;;;;;;;;;;;;5050556;28;19921;-77
2023/10/01 12:29:12;;;;;;;;;;;;;;;;;;5031514;28;19921;-70
2023/10/01 12:31:40;;;;;;;;;;;;;;;;;;5032406;28;19921;-72
2023/10/01 12:34:06;;;;;;;;;;;;;;;;;;5030726;28;19936;-72
2023/10/01 12:36:42;;;;;;;;;;;;;;;;;;5041527;28;19927;-71
2023/10/01 12:41:47;;;;;;;;;;;;;;;;;;5050856;28;19921;-72
2023/10/01 12:44:27;;;;;;;;;;;;;;;;;;5051164;28;19931;-71
2023/10/01 12:46:54;;;;;;;;;;;;;;;;;;5034258;28;19921;-72
2023/10/01 12:49:20;;;;;;;;;;;;;;;;;;5050259;28;20015;-71
2023/10/01 12:51:53;;;;;;;;;;;;;;;;;;5047585;28;19921;-71
2023/10/01 12:54:19;;;;;;;;;;;;;;;;;;5049617;28;20011;-72
2023/10/01 12:56:48;;;;;;;;;;;;;;;;;;5049637;28;20011;-73
2023/10/01 12:59:20;;;;;;;;;;;;;;;;;;5047973;28;19920;-71
2023/10/01 13:01:53;;;;;;;;;;;;;;;;;;5050442;28;20375;-71
2023/10/01 13:04:22;;;;;;;;;;;;;;;;;;5044405;28;19920;-71
2023/10/01 13:06:48;;;;;;;;;;;;;;;;;;5048746;28;19920;-71
2023/10/01 13:12:14;;;;;;;;;;;;;;;;;;5049261;28;19923;-70
2023/10/01 13:14:40;;;;;;;;;;;;;;;;;;5050906;28;19927;-71
2023/10/01 13:17:06;;;;;;;;;;;;;;;;;;5050030;28;20408;-69
2023/10/01 13:19:34;;;;;;;;;;;;;;;;;;5050410;28;20057;-71
2023/10/01 13:22:03;;;;;;;;;;;;;;;;;;5050300;28;20306;-70
2023/10/01 13:24:31;;;;;;;;;;;;;;;;;;5049552;28;19970;-72
2023/10/01 13:27:10;;;;;;;;;;;;;;;;;;5040399;28;20055;-73
2023/10/01 13:29:35;;;;;;;;;;;;;;;;;;5047059;28;19925;-77
2023/10/01 13:32:15;;;;;;;;;;;;;;;;;;5049562;28;19920;-77
2023/10/01 13:34:54;;;;;;;;;;;;;;;;;;5053446;28;19927;-75
2023/10/01 13:40:29;;;;;;;;;;;;;;;;;;5051901;28;19950;-73
2023/10/01 14:10:55;;;;;;;;;;;;;;;;;;5061154;28;19920;-73
2023/10/01 14:13:34;;;;;;;;;;;;;;;;;;5052775;28;19927;-73
2023/10/01 14:16:17;;;;;;;;;;;;;;;;;;5051725;28;19921;-75
2023/10/01 14:18:53;;;;;;;;;;;;;;;;;;5052683;28;19931;-75
2023/10/01 14:21:21;;;;;;;;;;;;;;;;;;5052432;28;19920;-73
2023/10/01 14:23:47;;;;;;;;;;;;;;;;;;5052152;28;19929;-75
2023/10/01 14:26:14;;;;;;;;;;;;;;;;;;5052188;28;20519;-73
2023/10/01 14:28:45;;;;;;;;;;;;;;;;;;5052759;28;19927;-73
2023/10/01 14:31:11;;;;;;;;;;;;;;;;;;5051718;28;19928;-72
2023/10/01 14:33:40;;;;;;;;;;;;;;;;;;5051234;28;19921;-73
2023/10/01 14:36:06;;;;;;;;;;;;;;;;;;5049431;28;19947;-73
2023/10/01 14:38:40;;;;;;;;;;;;;;;;;;5035553;28;20368;-73
2023/10/01 14:41:09;;;;;;;;;;;;;;;;;;5052549;28;20274;-74
2023/10/01 14:43:41;;;;;;;;;;;;;;;;;;5052594;28;19967;-75
2023/10/01 14:46:08;;;;;;;;;;;;;;;;;;5036931;28;19928;-74
2023/10/01 14:48:38;;;;;;;;;;;;;;;;;;5033152;28;19921;-72
2023/10/01 14:51:04;;;;;;;;;;;;;;;;;;5051500;28;19921;-73
2023/10/01 14:53:36;;;;;;;;;;;;;;;;;;5050704;28;20568;-74
2023/10/01 14:56:04;;;;;;;;;;;;;;;;;;5050125;28;19973;-73
2023/10/01 14:58:30;;;;;;;;;;;;;;;;;;5052258;28;19921;-72
2023/10/01 15:00:57;;;;;;;;;;;;;;;;;;5035994;28;19928;-71
2023/10/01 15:03:33;;;;;;;;;;;;;;;;;;5040661;28;19974;-72
2023/10/01 15:05:59;;;;;;;;;;;;;;;;;;5052596;28;20011;-80
2023/10/01 15:08:29;;;;;;;;;;;;;;;;;;5051700;28;19975;-73
2023/10/01 15:10:55;;;;;;;;;;;;;;;;;;5051637;28;20019;-71
2023/10/01 15:13:33;;;;;;;;;;;;;;;;;;5051815;28;20252;-75
2023/10/01 15:16:02;;;;;;;;;;;;;;;;;;5050649;28;20439;-75
2023/10/01 15:18:28;;;;;;;;;;;;;;;;;;5051462;28;19929;-73
2023/10/01 15:20:54;;;;;;;;;;;;;;;;;;5051386;28;19995;-78
2023/10/01 15:23:20;;;;;;;;;;;;;;;;;;5050154;28;20416;-75
2023/10/01 15:25:46;;;;;;;;;;;;;;;;;;5052821;28;19928;-77
2023/10/01 15:28:15;;;;;;;;;;;;;;;;;;5052088;28;19921;-77
2023/10/01 15:30:44;;;;;;;;;;;;;;;;;;5049999;28;19974;-78
2023/10/01 15:33:15;;;;;;;;;;;;;;;;;;5034958;28;20019;-76
2023/10/01 15:35:43;;;;;;;;;;;;;;;;;;5051123;28;19921;-74
2023/10/01 15:38:09;;;;;;;;;;;;;;;;;;5047329;28;20380;-79
2023/10/01 15:40:35;;;;;;;;;;;;;;;;;;5051906;28;20027;-79
2023/10/01 15:43:01;;;;;;;;;;;;;;;;;;5051598;28;20046;-79
2023/10/01 15:45:30;;;;;;;;;;;;;;;;;;5051281;28;19925;-79
2023/10/01 15:47:58;;;;;;;;;;;;;;;;;;5035479;28;20007;-76
2023/10/01 15:50:40;;;;;;;;;;;;;;;;;;5051477;28;20032;-77
2023/10/01 15:53:17;;;;;;;;;;;;;;;;;;5034552;28;19921;-80
2023/10/01 15:55:55;;;;;;;;;;;;;;;;;;5049852;28;19930;-76
2023/10/01 15:58:24;;;;;;;;;;;;;;;;;;5051388;28;19921;-76
2023/10/01 16:00:52;;;;;;;;;;;;;;;;;;5051998;28;20015;-77
2023/10/01 16:03:25;;;;;;;;;;;;;;;;;;5025978;28;20323;-76
2023/10/01 16:05:56;;;;;;;;;;;;;;;;;;5051310;28;20259;-74
2023/10/01 16:08:22;;;;;;;;;;;;;;;;;;5050345;28;19927;-73
2023/10/01 16:10:48;;;;;;;;;;;;;;;;;;5050440;28;19921;-74
2023/10/01 16:13:14;;;;;;;;;;;;;;;;;;5050783;28;20372;-72
2023/10/01 16:15:40;;;;;;;;;;;;;;;;;;5051456;28;20019;-74
2023/10/01 16:18:09;;;;;;;;;;;;;;;;;;5051573;28;20269;-74
2023/10/01 16:20:36;;;;;;;;;;;;;;;;;;5051373;28;20373;-78
2023/10/01 16:23:13;;;;;;;;;;;;;;;;;;5051526;28;19931;-79
2023/10/01 16:25:39;;;;;;;;;;;;;;;;;;5028942;28;20382;-78
2023/10/01 16:28:05;;;;;;;;;;;;;;;;;;5050265;28;19921;-78
2023/10/01 16:30:31;;;;;;;;;;;;;;;;;;5050878;28;20330;-79
2023/10/01 16:32:57;;;;;;;;;;;;;;;;;;5050953;28;19924;-77
2023/10/01 16:35:31;;;;;;;;;;;;;;;;;;5062919;28;19924;-77
2023/10/01 16:37:57;;;;;;;;;;;;;;;;;;5050107;28;19927;-75
2023/10/01 16:40:23;;;;;;;;;;;;;;;;;;5049508;28;19924;-75
2023/10/01 16:42:52;;;;;;;;;;;;;;;;;;5050452;28;19927;-76
2023/10/01 16:45:17;;;;;;;;;;;;;;;;;;5050093;28;19967;-75
2023/10/01 16:47:48;;;;;;;;;;;;;;;;;;5031373;28;19932;-75
2023/10/01 16:50:14;;;;;;;;;;;;;;;;;;5047129;28;19921;-79
2023/10/01 16:52:40;;;;;;;;;;;;;;;;;;5048803;28;19963;-75
2023/10/01 16:55:06;;;;;;;;;;;;;;;;;;5046712;28;19968;-74
2023/10/01 16:57:32;;;;;;;;;;;;;;;;;;5014004;28;19924;-75
2023/10/01 16:59:58;;;;;;;;;;;;;;;;;;5031370;28;20008;-74
2023/10/01 17:02:26;;;;;;;;;;;;;;;;;;5030740;28;19965;-75
2023/10/01 17:04:52;;;;;;;;;;;;;;;;;;5031188;28;19921;-75
2023/10/01 17:07:18;;;;;;;;;;;;;;;;;;5045502;28;20251;-74
2023/10/01 17:09:50;;;;;;;;;;;;;;;;;;5049526;28;19921;-76
2023/10/01 17:12:18;;;;;;;;;;;;;;;;;;5034760;28;19921;-75
2023/10/01 17:14:44;;;;;;;;;;;;;;;;;;5032659;28;20386;-75
2023/10/01 17:17:12;;;;;;;;;;;;;;;;;;5051778;28;20382;-75
2023/10/01 17:19:39;;;;;;;;;;;;;;;;;;5050961;28;20432;-74
2023/10/01 17:22:08;;;;;;;;;;;;;;;;;;5051528;28;19928;-75
2023/10/01 17:24:36;;;;;;;;;;;;;;;;;;5049870;28;19943;-74
2023/10/01 17:27:05;;;;;;;;;;;;;;;;;;5051042;28;19975;-75
2023/10/01 17:29:31;;;;;;;;;;;;;;;;;;5051003;28;19921;-74
2023/10/01 17:31:58;;;;;;;;;;;;;;;;;;5054039;28;19921;-74
2023/10/01 17:34:24;;;;;;;;;;;;;;;;;;5053470;28;19928;-74
2023/10/01 17:36:51;;;;;;;;;;;;;;;;;;5054014;28;19920;-77
2023/10/01 17:39:24;;;;;;;;;;;;;;;;;;5045682;28;19951;-80
2023/10/01 17:41:57;;;;;;;;;;;;;;;;;;5040270;28;20376;-74
2023/10/01 17:44:24;;;;;;;;;;;;;;;;;;5065353;28;19924;-74
2023/10/01 17:46:56;;;;;;;;;;;;;;;;;;5063349;28;19927;-74
2023/10/01 17:49:26;;;;;;;;;;;;;;;;;;5068736;28;19971;-74
2023/10/01 17:51:54;;;;;;;;;;;;;;;;;;5065666;28;19921;-75
2023/10/01 17:54:20;;;;;;;;;;;;;;;;;;5056712;28;20366;-79
2023/10/01 17:56:46;;;;;;;;;;;;;;;;;;5070440;28;19927;-74
2023/10/01 17:59:12;;;;;;;;;;;;;;;;;;5050360;28;20366;-77
2023/10/01 18:01:38;;;;;;;;;;;;;;;;;;5068746;28;19928;-77